sensor_id;sensor_type;location;lat;lon;timestamp;P1;durP1;ratioP1;P2;durP2;ratioP2
61407;SDS011;47274;43.054;25.146;2023-05-07T00:01:58;13.47;;;5.67;;
61407;SDS011;47274;43.054;25.146;2023-05-07T00:04:24;13.40;;;6.22;;
61407;SDS011;47274;43.054;25.146;2023-05-07T00:06:50;10.45;;;6.00;;
61407;SDS011;47274;43.054;25.146;2023-05-07T00:09:16;12.25;;;6.10;;
61407;SDS011;47274;43.054;25.146;2023-05-07T00:11:42;14.10;;;6.80;;
61407;SDS011;47274;43.054;25.146;2023-05-07T00:14:07;12.65;;;5.90;;
61407;SDS011;47274;43.054;25.146;2023-05-07T00:16:33;11.40;;;5.90;;
61407;SDS011;47274;43.054;25.146;2023-05-07T00:18:59;10.15;;;5.72;;
61407;SDS011;47274;43.054;25.146;2023-05-07T00:21:25;9.18;;;5.07;;
61407;SDS011;47274;43.054;25.146;2023-05-07T00:23:54;10.70;;;6.13;;
61407;SDS011;47274;43.054;25.146;2023-05-07T00:26:19;12.05;;;6.13;;
61407;SDS011;47274;43.054;25.146;2023-05-07T00:28:48;11.80;;;5.75;;
61407;SDS011;47274;43.054;25.146;2023-05-07T00:31:14;14.70;;;5.93;;
61407;SDS011;47274;43.054;25.146;2023-05-07T00:33:40;12.40;;;5.70;;
61407;SDS011;47274;43.054;25.146;2023-05-07T00:36:06;13.20;;;5.97;;
61407;SDS011;47274;43.054;25.146;2023-05-07T00:38:32;13.63;;;5.50;;
61407;SDS011;47274;43.054;25.146;2023-05-07T00:40:58;11.82;;;5.18;;
61407;SDS011;47274;43.054;25.146;2023-05-07T00:43:24;14.73;;;5.65;;
61407;SDS011;47274;43.054;25.146;2023-05-07T00:45:49;10.57;;;5.68;;
61407;SDS011;47274;43.054;25.146;2023-05-07T00:48:15;14.38;;;5.93;;
61407;SDS011;47274;43.054;25.146;2023-05-07T00:50:41;15.02;;;6.45;;
61407;SDS011;47274;43.054;25.146;2023-05-07T00:53:07;13.40;;;6.00;;
61407;SDS011;47274;43.054;25.146;2023-05-07T00:55:34;13.27;;;5.65;;
61407;SDS011;47274;43.054;25.146;2023-05-07T00:58:00;11.25;;;5.95;;
61407;SDS011;47274;43.054;25.146;2023-05-07T01:00:26;14.13;;;6.05;;
61407;SDS011;47274;43.054;25.146;2023-05-07T01:02:52;15.93;;;6.45;;
61407;SDS011;47274;43.054;25.146;2023-05-07T01:05:18;16.35;;;6.53;;
61407;SDS011;47274;43.054;25.146;2023-05-07T01:07:48;12.95;;;6.20;;
61407;SDS011;47274;43.054;25.146;2023-05-07T01:10:15;16.30;;;6.60;;
61407;SDS011;47274;43.054;25.146;2023-05-07T01:12:42;14.40;;;6.88;;
61407;SDS011;47274;43.054;25.146;2023-05-07T01:15:10;12.52;;;6.35;;
61407;SDS011;47274;43.054;25.146;2023-05-07T01:17:36;15.15;;;7.05;;
61407;SDS011;47274;43.054;25.146;2023-05-07T01:20:10;16.48;;;6.80;;
61407;SDS011;47274;43.054;25.146;2023-05-07T01:22:37;11.45;;;6.20;;
61407;SDS011;47274;43.054;25.146;2023-05-07T01:25:05;13.85;;;5.30;;
61407;SDS011;47274;43.054;25.146;2023-05-07T01:27:32;12.00;;;5.53;;
61407;SDS011;47274;43.054;25.146;2023-05-07T01:29:59;10.05;;;4.68;;
61407;SDS011;47274;43.054;25.146;2023-05-07T01:32:32;11.20;;;4.97;;
61407;SDS011;47274;43.054;25.146;2023-05-07T01:35:03;14.85;;;5.95;;
61407;SDS011;47274;43.054;25.146;2023-05-07T01:37:32;14.90;;;6.40;;
61407;SDS011;47274;43.054;25.146;2023-05-07T01:39:59;17.98;;;6.47;;
61407;SDS011;47274;43.054;25.146;2023-05-07T01:42:27;15.00;;;6.75;;
61407;SDS011;47274;43.054;25.146;2023-05-07T01:44:54;17.60;;;7.78;;
61407;SDS011;47274;43.054;25.146;2023-05-07T01:47:21;14.55;;;6.85;;
61407;SDS011;47274;43.054;25.146;2023-05-07T01:49:48;13.65;;;7.45;;
61407;SDS011;47274;43.054;25.146;2023-05-07T01:52:14;18.95;;;8.40;;
61407;SDS011;47274;43.054;25.146;2023-05-07T01:54:40;16.52;;;8.00;;
61407;SDS011;47274;43.054;25.146;2023-05-07T01:57:06;16.08;;;7.88;;
61407;SDS011;47274;43.054;25.146;2023-05-07T01:59:32;17.42;;;9.35;;
61407;SDS011;47274;43.054;25.146;2023-05-07T02:01:58;17.08;;;8.32;;
61407;SDS011;47274;43.054;25.146;2023-05-07T02:04:24;18.27;;;8.85;;
61407;SDS011;47274;43.054;25.146;2023-05-07T02:06:51;18.38;;;9.55;;
61407;SDS011;47274;43.054;25.146;2023-05-07T02:09:18;18.40;;;8.90;;
61407;SDS011;47274;43.054;25.146;2023-05-07T02:11:47;18.13;;;8.18;;
61407;SDS011;47274;43.054;25.146;2023-05-07T02:14:13;16.20;;;8.23;;
61407;SDS011;47274;43.054;25.146;2023-05-07T02:16:39;18.33;;;9.05;;
61407;SDS011;47274;43.054;25.146;2023-05-07T02:19:05;19.23;;;10.38;;
61407;SDS011;47274;43.054;25.146;2023-05-07T02:21:31;32.45;;;11.05;;
61407;SDS011;47274;43.054;25.146;2023-05-07T02:23:57;18.70;;;9.45;;
61407;SDS011;47274;43.054;25.146;2023-05-07T02:26:22;19.20;;;8.95;;
61407;SDS011;47274;43.054;25.146;2023-05-07T02:28:48;18.92;;;9.68;;
61407;SDS011;47274;43.054;25.146;2023-05-07T02:31:14;17.58;;;9.07;;
61407;SDS011;47274;43.054;25.146;2023-05-07T02:33:40;35.38;;;11.43;;
61407;SDS011;47274;43.054;25.146;2023-05-07T02:36:11;18.25;;;9.48;;
61407;SDS011;47274;43.054;25.146;2023-05-07T02:38:47;19.40;;;10.82;;
61407;SDS011;47274;43.054;25.146;2023-05-07T02:41:13;19.40;;;10.45;;
61407;SDS011;47274;43.054;25.146;2023-05-07T02:43:39;18.27;;;9.52;;
61407;SDS011;47274;43.054;25.146;2023-05-07T02:46:05;18.70;;;9.90;;
61407;SDS011;47274;43.054;25.146;2023-05-07T02:48:35;20.48;;;9.85;;
61407;SDS011;47274;43.054;25.146;2023-05-07T02:51:01;18.42;;;8.75;;
61407;SDS011;47274;43.054;25.146;2023-05-07T02:53:28;18.98;;;9.13;;
61407;SDS011;47274;43.054;25.146;2023-05-07T02:55:55;18.40;;;8.38;;
61407;SDS011;47274;43.054;25.146;2023-05-07T02:58:22;17.15;;;7.93;;
61407;SDS011;47274;43.054;25.146;2023-05-07T03:00:49;14.98;;;7.32;;
61407;SDS011;47274;43.054;25.146;2023-05-07T03:03:37;14.30;;;6.75;;
61407;SDS011;47274;43.054;25.146;2023-05-07T03:06:03;13.30;;;6.70;;
61407;SDS011;47274;43.054;25.146;2023-05-07T03:08:29;15.82;;;6.57;;
61407;SDS011;47274;43.054;25.146;2023-05-07T03:10:55;15.45;;;7.30;;
61407;SDS011;47274;43.054;25.146;2023-05-07T03:13:21;14.18;;;6.07;;
61407;SDS011;47274;43.054;25.146;2023-05-07T03:15:47;14.57;;;6.68;;
61407;SDS011;47274;43.054;25.146;2023-05-07T03:18:13;14.13;;;6.18;;
61407;SDS011;47274;43.054;25.146;2023-05-07T03:20:39;15.70;;;5.97;;
61407;SDS011;47274;43.054;25.146;2023-05-07T03:23:05;16.02;;;6.70;;
61407;SDS011;47274;43.054;25.146;2023-05-07T03:25:31;15.23;;;6.20;;
61407;SDS011;47274;43.054;25.146;2023-05-07T03:27:57;13.65;;;6.35;;
61407;SDS011;47274;43.054;25.146;2023-05-07T03:30:30;14.02;;;5.72;;
61407;SDS011;47274;43.054;25.146;2023-05-07T03:32:56;14.25;;;6.00;;
61407;SDS011;47274;43.054;25.146;2023-05-07T03:35:22;12.43;;;5.32;;
61407;SDS011;47274;43.054;25.146;2023-05-07T03:37:48;10.75;;;5.00;;
61407;SDS011;47274;43.054;25.146;2023-05-07T03:40:14;15.75;;;6.30;;
61407;SDS011;47274;43.054;25.146;2023-05-07T03:42:45;11.50;;;5.90;;
61407;SDS011;47274;43.054;25.146;2023-05-07T03:45:12;14.52;;;5.82;;
61407;SDS011;47274;43.054;25.146;2023-05-07T03:47:41;16.67;;;5.80;;
61407;SDS011;47274;43.054;25.146;2023-05-07T03:50:09;16.00;;;6.43;;
61407;SDS011;47274;43.054;25.146;2023-05-07T03:52:36;11.43;;;5.38;;
61407;SDS011;47274;43.054;25.146;2023-05-07T03:55:03;12.93;;;5.53;;
61407;SDS011;47274;43.054;25.146;2023-05-07T03:57:32;9.20;;;4.30;;
61407;SDS011;47274;43.054;25.146;2023-05-07T03:59:58;8.85;;;4.10;;
61407;SDS011;47274;43.054;25.146;2023-05-07T04:02:25;9.25;;;4.15;;
61407;SDS011;47274;43.054;25.146;2023-05-07T04:04:51;8.13;;;4.40;;
61407;SDS011;47274;43.054;25.146;2023-05-07T04:07:17;9.48;;;4.90;;
61407;SDS011;47274;43.054;25.146;2023-05-07T04:09:48;10.98;;;5.22;;
61407;SDS011;47274;43.054;25.146;2023-05-07T04:12:14;12.30;;;4.60;;
61407;SDS011;47274;43.054;25.146;2023-05-07T04:14:40;9.68;;;5.00;;
61407;SDS011;47274;43.054;25.146;2023-05-07T04:17:07;12.57;;;6.43;;
61407;SDS011;47274;43.054;25.146;2023-05-07T04:19:37;12.68;;;5.75;;
61407;SDS011;47274;43.054;25.146;2023-05-07T04:22:03;12.98;;;6.30;;
61407;SDS011;47274;43.054;25.146;2023-05-07T04:24:31;14.73;;;6.38;;
61407;SDS011;47274;43.054;25.146;2023-05-07T04:27:00;18.90;;;9.13;;
61407;SDS011;47274;43.054;25.146;2023-05-07T04:29:25;25.45;;;13.13;;
61407;SDS011;47274;43.054;25.146;2023-05-07T04:31:51;21.48;;;10.52;;
61407;SDS011;47274;43.054;25.146;2023-05-07T04:34:17;14.73;;;6.18;;
61407;SDS011;47274;43.054;25.146;2023-05-07T04:36:43;11.55;;;5.25;;
61407;SDS011;47274;43.054;25.146;2023-05-07T04:39:11;13.10;;;5.30;;
61407;SDS011;47274;43.054;25.146;2023-05-07T04:41:40;9.60;;;5.03;;
61407;SDS011;47274;43.054;25.146;2023-05-07T04:44:07;7.93;;;4.38;;
61407;SDS011;47274;43.054;25.146;2023-05-07T04:46:34;7.32;;;4.35;;
61407;SDS011;47274;43.054;25.146;2023-05-07T04:49:01;10.75;;;4.60;;
61407;SDS011;47274;43.054;25.146;2023-05-07T04:51:27;9.38;;;3.92;;
61407;SDS011;47274;43.054;25.146;2023-05-07T04:53:53;9.38;;;4.03;;
61407;SDS011;47274;43.054;25.146;2023-05-07T04:56:19;7.55;;;4.25;;
61407;SDS011;47274;43.054;25.146;2023-05-07T04:58:46;8.70;;;4.22;;
61407;SDS011;47274;43.054;25.146;2023-05-07T05:01:13;9.55;;;4.32;;
61407;SDS011;47274;43.054;25.146;2023-05-07T05:03:40;7.43;;;4.80;;
61407;SDS011;47274;43.054;25.146;2023-05-07T05:06:07;7.72;;;3.67;;
61407;SDS011;47274;43.054;25.146;2023-05-07T05:08:33;6.43;;;3.67;;
61407;SDS011;47274;43.054;25.146;2023-05-07T05:11:01;8.52;;;3.60;;
61407;SDS011;47274;43.054;25.146;2023-05-07T05:13:29;9.98;;;3.65;;
61407;SDS011;47274;43.054;25.146;2023-05-07T05:15:55;7.50;;;4.10;;
61407;SDS011;47274;43.054;25.146;2023-05-07T05:18:23;10.27;;;3.63;;
61407;SDS011;47274;43.054;25.146;2023-05-07T05:20:49;7.07;;;4.03;;
61407;SDS011;47274;43.054;25.146;2023-05-07T05:23:17;8.02;;;3.75;;
61407;SDS011;47274;43.054;25.146;2023-05-07T05:25:43;6.60;;;3.30;;
61407;SDS011;47274;43.054;25.146;2023-05-07T05:28:11;7.20;;;3.50;;
61407;SDS011;47274;43.054;25.146;2023-05-07T05:30:37;7.13;;;3.40;;
61407;SDS011;47274;43.054;25.146;2023-05-07T05:33:04;5.82;;;3.13;;
61407;SDS011;47274;43.054;25.146;2023-05-07T05:35:30;5.22;;;3.10;;
61407;SDS011;47274;43.054;25.146;2023-05-07T05:37:58;7.65;;;3.25;;
61407;SDS011;47274;43.054;25.146;2023-05-07T05:40:24;4.50;;;3.40;;
61407;SDS011;47274;43.054;25.146;2023-05-07T05:42:49;4.32;;;2.80;;
61407;SDS011;47274;43.054;25.146;2023-05-07T05:45:16;6.55;;;3.30;;
61407;SDS011;47274;43.054;25.146;2023-05-07T05:47:44;5.53;;;3.20;;
61407;SDS011;47274;43.054;25.146;2023-05-07T05:50:09;6.85;;;3.33;;
61407;SDS011;47274;43.054;25.146;2023-05-07T05:52:35;7.57;;;3.42;;
61407;SDS011;47274;43.054;25.146;2023-05-07T05:55:02;6.70;;;3.42;;
61407;SDS011;47274;43.054;25.146;2023-05-07T05:57:28;8.13;;;3.60;;
61407;SDS011;47274;43.054;25.146;2023-05-07T05:59:54;5.60;;;3.47;;
61407;SDS011;47274;43.054;25.146;2023-05-07T06:02:20;9.55;;;3.90;;
61407;SDS011;47274;43.054;25.146;2023-05-07T06:04:46;7.75;;;4.07;;
61407;SDS011;47274;43.054;25.146;2023-05-07T06:07:16;7.75;;;3.88;;
61407;SDS011;47274;43.054;25.146;2023-05-07T06:09:41;8.57;;;4.63;;
61407;SDS011;47274;43.054;25.146;2023-05-07T06:12:07;8.57;;;3.88;;
61407;SDS011;47274;43.054;25.146;2023-05-07T06:14:34;9.32;;;3.67;;
61407;SDS011;47274;43.054;25.146;2023-05-07T06:17:00;8.82;;;3.33;;
61407;SDS011;47274;43.054;25.146;2023-05-07T06:19:26;6.93;;;3.92;;
61407;SDS011;47274;43.054;25.146;2023-05-07T06:21:55;8.45;;;3.67;;
61407;SDS011;47274;43.054;25.146;2023-05-07T06:24:23;5.68;;;3.50;;
61407;SDS011;47274;43.054;25.146;2023-05-07T06:26:50;5.45;;;3.63;;
61407;SDS011;47274;43.054;25.146;2023-05-07T06:29:15;7.63;;;3.83;;
61407;SDS011;47274;43.054;25.146;2023-05-07T06:31:42;7.75;;;3.78;;
61407;SDS011;47274;43.054;25.146;2023-05-07T06:34:09;8.30;;;3.70;;
61407;SDS011;47274;43.054;25.146;2023-05-07T06:36:37;6.88;;;3.90;;
61407;SDS011;47274;43.054;25.146;2023-05-07T06:39:29;5.15;;;3.40;;
61407;SDS011;47274;43.054;25.146;2023-05-07T06:41:55;7.03;;;3.45;;
61407;SDS011;47274;43.054;25.146;2023-05-07T06:44:25;5.72;;;3.53;;
61407;SDS011;47274;43.054;25.146;2023-05-07T06:47:09;7.40;;;3.95;;
61407;SDS011;47274;43.054;25.146;2023-05-07T06:49:38;9.18;;;3.70;;
61407;SDS011;47274;43.054;25.146;2023-05-07T06:52:03;5.82;;;3.47;;
61407;SDS011;47274;43.054;25.146;2023-05-07T06:54:29;9.23;;;3.45;;
61407;SDS011;47274;43.054;25.146;2023-05-07T06:56:55;9.85;;;3.47;;
61407;SDS011;47274;43.054;25.146;2023-05-07T06:59:24;6.97;;;3.70;;
61407;SDS011;47274;43.054;25.146;2023-05-07T07:01:50;7.43;;;3.50;;
61407;SDS011;47274;43.054;25.146;2023-05-07T07:04:16;7.57;;;3.58;;
61407;SDS011;47274;43.054;25.146;2023-05-07T07:06:45;7.93;;;3.85;;
61407;SDS011;47274;43.054;25.146;2023-05-07T07:09:13;8.38;;;3.40;;
61407;SDS011;47274;43.054;25.146;2023-05-07T07:11:40;7.00;;;3.63;;
61407;SDS011;47274;43.054;25.146;2023-05-07T07:14:06;6.50;;;3.30;;
61407;SDS011;47274;43.054;25.146;2023-05-07T07:16:38;8.80;;;3.07;;
61407;SDS011;47274;43.054;25.146;2023-05-07T07:19:03;6.68;;;3.00;;
61407;SDS011;47274;43.054;25.146;2023-05-07T07:21:29;6.18;;;3.05;;
61407;SDS011;47274;43.054;25.146;2023-05-07T07:23:56;5.10;;;2.85;;
61407;SDS011;47274;43.054;25.146;2023-05-07T07:26:22;5.20;;;2.67;;
61407;SDS011;47274;43.054;25.146;2023-05-07T07:28:47;5.82;;;3.10;;
61407;SDS011;47274;43.054;25.146;2023-05-07T07:31:17;8.15;;;3.42;;
61407;SDS011;47274;43.054;25.146;2023-05-07T07:33:43;4.03;;;2.90;;
61407;SDS011;47274;43.054;25.146;2023-05-07T07:36:09;6.00;;;2.70;;
61407;SDS011;47274;43.054;25.146;2023-05-07T07:38:36;4.63;;;2.60;;
61407;SDS011;47274;43.054;25.146;2023-05-07T07:41:02;8.23;;;3.00;;
61407;SDS011;47274;43.054;25.146;2023-05-07T07:43:29;5.38;;;2.90;;
61407;SDS011;47274;43.054;25.146;2023-05-07T07:45:55;9.57;;;2.70;;
61407;SDS011;47274;43.054;25.146;2023-05-07T07:48:21;4.68;;;2.78;;
61407;SDS011;47274;43.054;25.146;2023-05-07T07:50:51;4.00;;;2.83;;
61407;SDS011;47274;43.054;25.146;2023-05-07T07:53:17;5.13;;;2.60;;
61407;SDS011;47274;43.054;25.146;2023-05-07T07:55:44;5.50;;;2.75;;
61407;SDS011;47274;43.054;25.146;2023-05-07T07:58:14;4.22;;;2.53;;
61407;SDS011;47274;43.054;25.146;2023-05-07T08:00:40;4.90;;;2.65;;
61407;SDS011;47274;43.054;25.146;2023-05-07T08:03:08;2.72;;;2.38;;
61407;SDS011;47274;43.054;25.146;2023-05-07T08:05:38;5.85;;;2.80;;
61407;SDS011;47274;43.054;25.146;2023-05-07T08:08:05;3.42;;;2.50;;
61407;SDS011;47274;43.054;25.146;2023-05-07T08:10:33;6.35;;;2.80;;
61407;SDS011;47274;43.054;25.146;2023-05-07T08:13:04;6.22;;;2.78;;
61407;SDS011;47274;43.054;25.146;2023-05-07T08:15:32;6.57;;;3.03;;
61407;SDS011;47274;43.054;25.146;2023-05-07T08:17:58;4.82;;;2.65;;
61407;SDS011;47274;43.054;25.146;2023-05-07T08:20:26;4.28;;;2.45;;
61407;SDS011;47274;43.054;25.146;2023-05-07T08:22:52;7.22;;;2.70;;
61407;SDS011;47274;43.054;25.146;2023-05-07T08:25:18;3.03;;;2.00;;
61407;SDS011;47274;43.054;25.146;2023-05-07T08:27:44;3.63;;;2.28;;
61407;SDS011;47274;43.054;25.146;2023-05-07T08:30:11;2.75;;;2.13;;
61407;SDS011;47274;43.054;25.146;2023-05-07T08:32:41;9.23;;;2.58;;
61407;SDS011;47274;43.054;25.146;2023-05-07T08:35:07;4.03;;;2.40;;
61407;SDS011;47274;43.054;25.146;2023-05-07T08:37:33;6.05;;;2.60;;
61407;SDS011;47274;43.054;25.146;2023-05-07T08:40:00;8.77;;;2.40;;
61407;SDS011;47274;43.054;25.146;2023-05-07T08:42:30;6.68;;;2.05;;
61407;SDS011;47274;43.054;25.146;2023-05-07T08:45:00;5.47;;;2.50;;
61407;SDS011;47274;43.054;25.146;2023-05-07T08:47:51;2.83;;;2.30;;
61407;SDS011;47274;43.054;25.146;2023-05-07T08:50:25;5.97;;;2.92;;
61407;SDS011;47274;43.054;25.146;2023-05-07T08:52:51;6.60;;;2.55;;
61407;SDS011;47274;43.054;25.146;2023-05-07T08:55:18;4.50;;;2.35;;
61407;SDS011;47274;43.054;25.146;2023-05-07T08:57:45;4.55;;;2.60;;
61407;SDS011;47274;43.054;25.146;2023-05-07T09:00:14;5.35;;;2.90;;
61407;SDS011;47274;43.054;25.146;2023-05-07T09:02:41;4.07;;;2.45;;
61407;SDS011;47274;43.054;25.146;2023-05-07T09:05:08;5.90;;;3.00;;
61407;SDS011;47274;43.054;25.146;2023-05-07T09:07:36;4.43;;;2.47;;
61407;SDS011;47274;43.054;25.146;2023-05-07T09:10:04;4.80;;;2.55;;
61407;SDS011;47274;43.054;25.146;2023-05-07T09:12:33;2.42;;;2.22;;
61407;SDS011;47274;43.054;25.146;2023-05-07T09:15:02;6.32;;;2.55;;
61407;SDS011;47274;43.054;25.146;2023-05-07T09:17:29;15.48;;;4.85;;
61407;SDS011;47274;43.054;25.146;2023-05-07T09:19:55;5.47;;;2.70;;
61407;SDS011;47274;43.054;25.146;2023-05-07T09:22:21;5.18;;;2.45;;
61407;SDS011;47274;43.054;25.146;2023-05-07T09:24:55;11.23;;;3.50;;
61407;SDS011;47274;43.054;25.146;2023-05-07T09:27:24;5.03;;;2.58;;
61407;SDS011;47274;43.054;25.146;2023-05-07T09:29:52;6.35;;;3.17;;
61407;SDS011;47274;43.054;25.146;2023-05-07T09:32:17;5.63;;;2.80;;
61407;SDS011;47274;43.054;25.146;2023-05-07T09:34:44;4.90;;;3.00;;
61407;SDS011;47274;43.054;25.146;2023-05-07T09:37:12;4.78;;;2.65;;
61407;SDS011;47274;43.054;25.146;2023-05-07T09:39:41;6.97;;;2.80;;
61407;SDS011;47274;43.054;25.146;2023-05-07T09:42:10;6.07;;;2.77;;
61407;SDS011;47274;43.054;25.146;2023-05-07T09:44:43;5.55;;;2.85;;
61407;SDS011;47274;43.054;25.146;2023-05-07T09:47:16;6.45;;;2.95;;
61407;SDS011;47274;43.054;25.146;2023-05-07T09:49:48;5.35;;;3.15;;
61407;SDS011;47274;43.054;25.146;2023-05-07T09:52:19;2.63;;;2.43;;
61407;SDS011;47274;43.054;25.146;2023-05-07T09:54:49;16.65;;;4.70;;
61407;SDS011;47274;43.054;25.146;2023-05-07T09:57:18;7.22;;;3.42;;
61407;SDS011;47274;43.054;25.146;2023-05-07T09:59:50;5.95;;;2.70;;
61407;SDS011;47274;43.054;25.146;2023-05-07T10:02:19;4.97;;;2.85;;
61407;SDS011;47274;43.054;25.146;2023-05-07T10:04:50;4.70;;;2.78;;
61407;SDS011;47274;43.054;25.146;2023-05-07T10:07:21;5.60;;;2.78;;
61407;SDS011;47274;43.054;25.146;2023-05-07T10:09:50;8.25;;;2.88;;
61407;SDS011;47274;43.054;25.146;2023-05-07T10:12:26;14.05;;;2.92;;
61407;SDS011;47274;43.054;25.146;2023-05-07T10:14:53;5.15;;;2.50;;
61407;SDS011;47274;43.054;25.146;2023-05-07T10:17:22;5.25;;;3.22;;
61407;SDS011;47274;43.054;25.146;2023-05-07T10:19:49;4.65;;;2.90;;
61407;SDS011;47274;43.054;25.146;2023-05-07T10:22:17;5.15;;;2.70;;
61407;SDS011;47274;43.054;25.146;2023-05-07T10:24:45;7.70;;;2.70;;
61407;SDS011;47274;43.054;25.146;2023-05-07T10:27:17;5.63;;;2.63;;
61407;SDS011;47274;43.054;25.146;2023-05-07T10:32:25;8.00;;;3.10;;
61407;SDS011;47274;43.054;25.146;2023-05-07T10:37:28;3.45;;;2.80;;
61407;SDS011;47274;43.054;25.146;2023-05-07T10:39:55;8.07;;;3.30;;
61407;SDS011;47274;43.054;25.146;2023-05-07T10:42:24;4.68;;;2.97;;
61407;SDS011;47274;43.054;25.146;2023-05-07T10:44:53;6.13;;;2.78;;
61407;SDS011;47274;43.054;25.146;2023-05-07T10:47:26;7.45;;;3.00;;
61407;SDS011;47274;43.054;25.146;2023-05-07T10:52:36;16.92;;;5.32;;
61407;SDS011;47274;43.054;25.146;2023-05-07T10:57:52;5.78;;;3.20;;
61407;SDS011;47274;43.054;25.146;2023-05-07T11:05:28;8.32;;;3.17;;
61407;SDS011;47274;43.054;25.146;2023-05-07T11:08:16;6.60;;;3.13;;
61407;SDS011;47274;43.054;25.146;2023-05-07T11:11:04;6.43;;;3.10;;
61407;SDS011;47274;43.054;25.146;2023-05-07T11:13:44;4.55;;;2.75;;
61407;SDS011;47274;43.054;25.146;2023-05-07T11:16:24;4.75;;;3.25;;
61407;SDS011;47274;43.054;25.146;2023-05-07T11:19:00;7.25;;;3.10;;
61407;SDS011;47274;43.054;25.146;2023-05-07T11:24:26;10.63;;;3.90;;
61407;SDS011;47274;43.054;25.146;2023-05-07T11:26:56;8.15;;;3.20;;
61407;SDS011;47274;43.054;25.146;2023-05-07T11:29:24;9.35;;;3.70;;
61407;SDS011;47274;43.054;25.146;2023-05-07T11:31:56;4.80;;;3.13;;
61407;SDS011;47274;43.054;25.146;2023-05-07T11:34:27;7.82;;;3.47;;
61407;SDS011;47274;43.054;25.146;2023-05-07T11:36:55;4.50;;;3.00;;
61407;SDS011;47274;43.054;25.146;2023-05-07T11:39:35;6.72;;;2.95;;
61407;SDS011;47274;43.054;25.146;2023-05-07T11:42:01;8.52;;;3.28;;
61407;SDS011;47274;43.054;25.146;2023-05-07T11:44:41;8.80;;;3.60;;
61407;SDS011;47274;43.054;25.146;2023-05-07T11:47:07;6.32;;;3.38;;
61407;SDS011;47274;43.054;25.146;2023-05-07T11:49:33;14.73;;;3.90;;
61407;SDS011;47274;43.054;25.146;2023-05-07T11:51:59;5.55;;;3.00;;
61407;SDS011;47274;43.054;25.146;2023-05-07T11:54:25;8.93;;;3.45;;
61407;SDS011;47274;43.054;25.146;2023-05-07T11:56:51;8.18;;;3.47;;
61407;SDS011;47274;43.054;25.146;2023-05-07T11:59:17;7.80;;;3.08;;
61407;SDS011;47274;43.054;25.146;2023-05-07T12:01:45;22.25;;;6.65;;
61407;SDS011;47274;43.054;25.146;2023-05-07T12:04:12;13.30;;;4.28;;
61407;SDS011;47274;43.054;25.146;2023-05-07T12:06:38;10.23;;;3.92;;
61407;SDS011;47274;43.054;25.146;2023-05-07T12:09:04;8.82;;;3.28;;
61407;SDS011;47274;43.054;25.146;2023-05-07T12:11:32;7.53;;;3.50;;
61407;SDS011;47274;43.054;25.146;2023-05-07T12:13:59;7.35;;;3.28;;
61407;SDS011;47274;43.054;25.146;2023-05-07T12:16:24;6.68;;;3.08;;
61407;SDS011;47274;43.054;25.146;2023-05-07T12:18:51;7.57;;;3.35;;
61407;SDS011;47274;43.054;25.146;2023-05-07T12:21:17;10.75;;;3.88;;
61407;SDS011;47274;43.054;25.146;2023-05-07T12:23:44;4.70;;;3.22;;
61407;SDS011;47274;43.054;25.146;2023-05-07T12:26:10;17.17;;;4.88;;
61407;SDS011;47274;43.054;25.146;2023-05-07T12:28:37;10.50;;;4.20;;
61407;SDS011;47274;43.054;25.146;2023-05-07T12:31:06;10.93;;;4.10;;
61407;SDS011;47274;43.054;25.146;2023-05-07T12:33:35;9.75;;;3.63;;
61407;SDS011;47274;43.054;25.146;2023-05-07T12:36:02;6.55;;;3.28;;
61407;SDS011;47274;43.054;25.146;2023-05-07T12:38:34;4.95;;;3.42;;
61407;SDS011;47274;43.054;25.146;2023-05-07T12:41:02;7.10;;;3.30;;
61407;SDS011;47274;43.054;25.146;2023-05-07T12:43:28;6.88;;;3.05;;
61407;SDS011;47274;43.054;25.146;2023-05-07T12:45:56;9.85;;;3.30;;
61407;SDS011;47274;43.054;25.146;2023-05-07T12:48:25;16.67;;;5.50;;
61407;SDS011;47274;43.054;25.146;2023-05-07T12:50:54;17.50;;;5.22;;
61407;SDS011;47274;43.054;25.146;2023-05-07T12:53:22;8.60;;;3.70;;
61407;SDS011;47274;43.054;25.146;2023-05-07T12:55:58;11.18;;;3.40;;
61407;SDS011;47274;43.054;25.146;2023-05-07T12:58:29;7.00;;;3.00;;
61407;SDS011;47274;43.054;25.146;2023-05-07T13:00:59;8.10;;;3.50;;
61407;SDS011;47274;43.054;25.146;2023-05-07T13:03:30;5.03;;;3.00;;
61407;SDS011;47274;43.054;25.146;2023-05-07T13:06:01;7.38;;;3.08;;
61407;SDS011;47274;43.054;25.146;2023-05-07T13:08:29;7.97;;;3.40;;
61407;SDS011;47274;43.054;25.146;2023-05-07T13:10:57;16.20;;;5.20;;
61407;SDS011;47274;43.054;25.146;2023-05-07T13:13:25;9.27;;;3.38;;
61407;SDS011;47274;43.054;25.146;2023-05-07T13:15:51;5.57;;;3.00;;
61407;SDS011;47274;43.054;25.146;2023-05-07T13:18:17;6.10;;;2.90;;
61407;SDS011;47274;43.054;25.146;2023-05-07T13:20:43;7.63;;;3.40;;
61407;SDS011;47274;43.054;25.146;2023-05-07T13:23:08;5.18;;;3.03;;
61407;SDS011;47274;43.054;25.146;2023-05-07T13:25:34;7.15;;;3.20;;
61407;SDS011;47274;43.054;25.146;2023-05-07T13:28:00;5.68;;;2.72;;
61407;SDS011;47274;43.054;25.146;2023-05-07T13:30:26;6.40;;;2.92;;
61407;SDS011;47274;43.054;25.146;2023-05-07T13:32:53;6.18;;;2.97;;
61407;SDS011;47274;43.054;25.146;2023-05-07T13:35:21;5.22;;;2.95;;
61407;SDS011;47274;43.054;25.146;2023-05-07T13:37:47;4.45;;;2.90;;
61407;SDS011;47274;43.054;25.146;2023-05-07T13:40:14;9.27;;;3.13;;
61407;SDS011;47274;43.054;25.146;2023-05-07T13:42:40;5.45;;;2.90;;
61407;SDS011;47274;43.054;25.146;2023-05-07T13:45:06;4.07;;;2.80;;
61407;SDS011;47274;43.054;25.146;2023-05-07T13:47:33;4.18;;;2.70;;
61407;SDS011;47274;43.054;25.146;2023-05-07T13:49:59;3.47;;;2.78;;
61407;SDS011;47274;43.054;25.146;2023-05-07T13:52:25;6.03;;;2.65;;
61407;SDS011;47274;43.054;25.146;2023-05-07T13:54:51;6.88;;;2.97;;
61407;SDS011;47274;43.054;25.146;2023-05-07T13:57:20;5.82;;;2.85;;
61407;SDS011;47274;43.054;25.146;2023-05-07T13:59:46;3.80;;;2.60;;
61407;SDS011;47274;43.054;25.146;2023-05-07T14:02:11;6.88;;;3.08;;
61407;SDS011;47274;43.054;25.146;2023-05-07T14:04:37;5.60;;;2.60;;
61407;SDS011;47274;43.054;25.146;2023-05-07T14:07:03;5.10;;;2.50;;
61407;SDS011;47274;43.054;25.146;2023-05-07T14:09:29;6.25;;;2.92;;
61407;SDS011;47274;43.054;25.146;2023-05-07T14:11:54;4.13;;;2.70;;
61407;SDS011;47274;43.054;25.146;2023-05-07T14:14:20;4.47;;;2.42;;
61407;SDS011;47274;43.054;25.146;2023-05-07T14:16:46;7.13;;;3.20;;
61407;SDS011;47274;43.054;25.146;2023-05-07T14:19:12;9.52;;;3.03;;
61407;SDS011;47274;43.054;25.146;2023-05-07T14:21:37;5.00;;;2.55;;
61407;SDS011;47274;43.054;25.146;2023-05-07T14:24:05;5.85;;;3.08;;
61407;SDS011;47274;43.054;25.146;2023-05-07T14:26:32;6.70;;;2.97;;
61407;SDS011;47274;43.054;25.146;2023-05-07T14:28:58;7.30;;;2.78;;
61407;SDS011;47274;43.054;25.146;2023-05-07T14:31:24;5.65;;;3.30;;
61407;SDS011;47274;43.054;25.146;2023-05-07T14:33:50;10.13;;;3.00;;
61407;SDS011;47274;43.054;25.146;2023-05-07T14:36:17;8.13;;;2.97;;
61407;SDS011;47274;43.054;25.146;2023-05-07T14:38:45;8.55;;;2.88;;
61407;SDS011;47274;43.054;25.146;2023-05-07T14:41:12;6.32;;;3.22;;
61407;SDS011;47274;43.054;25.146;2023-05-07T14:43:38;27.25;;;4.53;;
61407;SDS011;47274;43.054;25.146;2023-05-07T14:46:04;8.40;;;2.90;;
61407;SDS011;47274;43.054;25.146;2023-05-07T14:48:30;7.13;;;2.85;;
61407;SDS011;47274;43.054;25.146;2023-05-07T14:50:56;8.35;;;2.83;;